createdAt,value
2018-05-17T00:00:21.996Z,14.20
2018-05-17T00:05:24.555Z,14.20
2018-05-17T00:10:27.120Z,14.20
2018-05-17T00:15:29.679Z,14.10
2018-05-17T00:20:32.264Z,14.00
2018-05-17T00:25:36.301Z,13.80
2018-05-17T00:30:39.186Z,13.70
2018-05-17T00:35:41.858Z,13.60
2018-05-17T00:40:44.356Z,13.50
2018-05-17T00:45:47.996Z,13.50
2018-05-17T00:50:51.329Z,13.30
2018-05-17T00:55:55.455Z,13.30
2018-05-17T01:00:58.015Z,13.20
2018-05-17T01:06:00.592Z,13.00
2018-05-17T01:11:05.824Z,12.90
2018-05-17T01:16:08.388Z,12.80
2018-05-17T01:21:28.103Z,12.90
2018-05-17T01:26:32.268Z,12.80
2018-05-17T01:31:35.078Z,12.80
2018-05-17T01:36:49.510Z,12.80
2018-05-17T01:41:52.852Z,12.70
2018-05-17T01:46:55.989Z,12.70
2018-05-17T01:51:59.116Z,12.70
2018-05-17T01:57:02.294Z,12.70
2018-05-17T02:02:05.692Z,12.60
2018-05-17T02:07:08.951Z,12.60
2018-05-17T02:12:11.526Z,12.60
2018-05-17T02:17:15.443Z,12.70
2018-05-17T02:22:18.020Z,12.90
2018-05-17T02:27:21.358Z,13.20
2018-05-17T02:32:24.027Z,13.20
2018-05-17T02:37:27.357Z,13.30
2018-05-17T02:42:29.907Z,13.30
2018-05-17T02:47:32.482Z,13.40
2018-05-17T02:52:35.353Z,13.30
2018-05-17T02:57:41.387Z,13.30
2018-05-17T03:02:44.165Z,13.30
2018-05-17T03:07:46.756Z,13.20
2018-05-17T03:12:49.323Z,13.00
2018-05-17T03:17:54.190Z,12.80
2018-05-17T03:23:03.267Z,12.80
2018-05-17T03:28:05.833Z,12.90
2018-05-17T03:33:08.545Z,12.80
2018-05-17T03:38:11.431Z,12.80
2018-05-17T03:43:14.755Z,13.00
2018-05-17T03:48:17.893Z,13.00
2018-05-17T03:53:20.457Z,12.90
2018-05-17T03:58:24.077Z,13.40
2018-05-17T04:03:39.248Z,13.50
2018-05-17T04:08:42.618Z,13.50
2018-05-17T04:13:45.186Z,13.60
2018-05-17T04:18:48.528Z,13.50
2018-05-17T04:23:51.093Z,13.50
2018-05-17T04:28:54.434Z,13.50
2018-05-17T04:33:57.597Z,13.50
2018-05-17T04:39:02.313Z,13.60
2018-05-17T04:44:05.338Z,13.50
2018-05-17T04:49:07.920Z,13.60
2018-05-17T04:54:11.136Z,13.40
2018-05-17T04:59:14.393Z,13.40
2018-05-17T05:04:17.748Z,13.80
2018-05-17T05:09:21.555Z,13.80
2018-05-17T05:14:24.899Z,14.00
2018-05-17T05:19:27.512Z,14.00
2018-05-17T05:24:30.101Z,14.00
2018-05-17T05:29:32.667Z,13.90
2018-05-17T05:34:36.014Z,13.40
2018-05-17T05:39:38.858Z,13.40
2018-05-17T05:44:41.448Z,13.50
2018-05-17T05:49:44.375Z,13.20
2018-05-17T05:54:47.905Z,13.20
2018-05-17T05:59:51.252Z,13.20
2018-05-17T06:04:53.844Z,13.20
2018-05-17T06:09:56.407Z,13.20
2018-05-17T06:15:00.413Z,13.50
2018-05-17T06:20:02.975Z,13.40
2018-05-17T06:25:07.969Z,13.40
2018-05-17T06:30:10.719Z,13.30
2018-05-17T06:35:13.564Z,13.60
2018-05-17T06:40:16.601Z,14.00
2018-05-17T06:45:19.253Z,13.90
2018-05-17T06:50:21.825Z,13.70
2018-05-17T06:55:25.315Z,13.80
2018-05-17T07:00:28.347Z,13.60
2018-05-17T07:05:31.751Z,13.50
2018-05-17T07:10:35.750Z,13.60
2018-05-17T07:15:39.033Z,13.60
2018-05-17T07:20:42.122Z,13.70
2018-05-17T07:25:45.453Z,13.90
2018-05-17T07:30:48.021Z,13.90
2018-05-17T07:35:51.911Z,13.40
2018-05-17T07:40:54.490Z,13.30
2018-05-17T07:45:58.842Z,13.20
2018-05-17T07:51:01.419Z,13.20
2018-05-17T07:56:04.000Z,13.30
2018-05-17T08:01:07.323Z,14.00
2018-05-17T08:06:11.140Z,14.00
2018-05-17T08:11:14.406Z,13.80
2018-05-17T08:16:16.982Z,13.80
2018-05-17T08:21:21.485Z,13.90
2018-05-17T08:26:25.171Z,13.70
2018-05-17T08:31:27.761Z,13.70
2018-05-17T08:36:30.726Z,13.70
2018-05-17T08:41:34.683Z,14.00
2018-05-17T08:46:37.883Z,14.00
2018-05-17T08:51:40.556Z,14.00
2018-05-17T08:56:44.688Z,13.40
2018-05-17T09:01:48.606Z,13.70
2018-05-17T09:06:51.180Z,13.70
2018-05-17T09:11:53.743Z,14.00
2018-05-17T09:16:56.759Z,14.00
2018-05-17T09:21:59.321Z,14.10
2018-05-17T09:27:02.653Z,14.60
2018-05-17T09:32:05.222Z,14.60
2018-05-17T09:37:07.802Z,14.50
2018-05-17T09:42:10.636Z,14.50
2018-05-17T09:47:13.964Z,14.60
2018-05-17T09:52:17.306Z,14.60
2018-05-17T09:57:19.889Z,14.60
2018-05-17T10:02:22.596Z,14.50
2018-05-17T10:07:25.588Z,14.40
2018-05-17T10:12:35.011Z,14.60
2018-05-17T10:17:40.414Z,14.40
2018-05-17T10:22:43.022Z,14.30
2018-05-17T10:27:45.591Z,14.60
2018-05-17T10:32:48.921Z,15.00
2018-05-17T10:37:53.375Z,14.90
2018-05-17T10:42:55.933Z,14.90
2018-05-17T10:47:59.057Z,15.10
2018-05-17T10:53:02.388Z,14.90
2018-05-17T10:58:05.712Z,14.70
2018-05-17T11:03:08.809Z,14.70
2018-05-17T11:08:12.157Z,14.80
2018-05-17T11:13:17.746Z,14.70
2018-05-17T11:18:20.312Z,14.60
2018-05-17T11:23:22.987Z,14.70
2018-05-17T11:28:26.317Z,15.10
2018-05-17T11:33:29.931Z,15.00
2018-05-17T11:38:33.311Z,14.80
2018-05-17T11:43:35.826Z,14.70
2018-05-17T11:48:39.152Z,14.90
2018-05-17T11:53:42.489Z,15.00
2018-05-17T11:58:45.070Z,15.00
2018-05-17T12:03:48.413Z,15.10
2018-05-17T12:08:50.991Z,15.10
2018-05-17T12:13:53.569Z,15.10
2018-05-17T12:18:56.997Z,15.70
2018-05-17T12:24:01.296Z,15.30
2018-05-17T12:29:03.873Z,15.30
2018-05-17T12:34:06.448Z,15.50
2018-05-17T12:39:09.003Z,15.40
2018-05-17T12:44:12.328Z,15.80
2018-05-17T12:49:14.903Z,15.80
2018-05-17T12:54:17.463Z,16.30
2018-05-17T12:59:20.036Z,16.60
2018-05-17T13:04:23.366Z,16.90
2018-05-17T13:09:25.928Z,16.90
2018-05-17T13:14:28.513Z,17.10
2018-05-17T13:19:31.097Z,17.10
2018-05-17T13:24:33.671Z,17.00
2018-05-17T13:29:37.100Z,16.70
2018-05-17T13:34:39.686Z,17.00
2018-05-17T13:39:42.278Z,17.40
2018-05-17T13:44:44.856Z,17.60
2018-05-17T13:49:48.176Z,17.20
2018-05-17T13:54:51.510Z,17.10
2018-05-17T13:59:54.109Z,17.10
2018-05-17T14:04:56.789Z,17.20
2018-05-17T14:10:00.183Z,17.80
2018-05-17T14:15:02.767Z,17.80
2018-05-17T14:20:05.410Z,18.10
2018-05-17T14:25:07.990Z,18.20
2018-05-17T14:30:12.109Z,18.70
2018-05-17T14:35:14.712Z,18.70
2018-05-17T14:40:17.311Z,18.50
2018-05-17T14:45:19.871Z,17.80
2018-05-17T14:50:27.279Z,17.80
2018-05-17T14:55:31.063Z,18.10
2018-05-17T15:00:33.625Z,18.60
2018-05-17T15:05:36.224Z,18.60
2018-05-17T15:16:07.186Z,18.60
2018-05-17T15:21:09.852Z,18.50
2018-05-17T15:26:13.586Z,18.30
2018-05-17T15:31:16.939Z,17.90
2018-05-17T15:36:19.573Z,17.90
2018-05-17T15:41:22.118Z,18.20
2018-05-17T15:46:24.704Z,17.90
2018-05-17T15:51:28.295Z,18.10
2018-05-17T15:56:30.864Z,18.10
2018-05-17T16:01:33.517Z,17.80
2018-05-17T16:06:36.952Z,18.20
2018-05-17T16:11:39.945Z,18.10
2018-05-17T16:16:42.533Z,18.70
2018-05-17T16:21:46.323Z,18.70
2018-05-17T16:26:48.909Z,18.70
2018-05-17T16:31:51.479Z,18.70
2018-05-17T16:36:54.077Z,19.00
2018-05-17T16:41:56.660Z,19.10
2018-05-17T16:46:59.247Z,18.80
2018-05-17T16:52:02.163Z,18.30
2018-05-17T16:57:05.569Z,18.00
2018-05-17T17:02:08.627Z,18.00
2018-05-17T17:07:11.235Z,18.00
2018-05-17T17:12:13.817Z,17.90
2018-05-17T17:17:16.407Z,18.10
2018-05-17T17:22:19.477Z,18.10
2018-05-17T17:27:36.725Z,18.20
2018-05-17T17:32:39.307Z,18.30
2018-05-17T17:37:41.894Z,18.30
2018-05-17T17:42:44.481Z,18.40
2018-05-17T17:47:47.055Z,18.50
2018-05-17T17:52:49.615Z,18.60
2018-05-17T17:57:52.192Z,18.90
2018-05-17T18:02:55.844Z,18.90
2018-05-17T18:07:59.166Z,18.60
2018-05-17T18:13:01.775Z,18.60
2018-05-17T18:18:04.992Z,18.50
2018-05-17T18:23:07.716Z,18.40
2018-05-17T18:28:10.379Z,18.30
2018-05-17T18:33:13.798Z,17.90
2018-05-17T18:38:16.568Z,17.90
2018-05-17T18:43:20.896Z,17.80
2018-05-17T18:48:23.525Z,17.80
2018-05-17T18:53:29.475Z,17.60
2018-05-17T18:58:32.048Z,17.60
2018-05-17T19:03:34.718Z,17.50
2018-05-17T19:08:38.570Z,17.50
2018-05-17T19:13:41.872Z,17.40
2018-05-17T19:18:44.445Z,17.40
2018-05-17T19:23:48.595Z,17.30
2018-05-17T19:28:51.736Z,17.30
2018-05-17T19:33:54.722Z,17.20
2018-05-17T19:38:57.889Z,17.20
2018-05-17T19:44:00.460Z,17.20
2018-05-17T19:49:06.452Z,17.20
2018-05-17T19:54:09.028Z,17.30
2018-05-17T19:59:11.665Z,17.30
2018-05-17T20:04:14.480Z,17.30
2018-05-17T20:09:17.494Z,17.30
2018-05-17T20:14:20.915Z,17.10
2018-05-17T20:19:23.519Z,17.10
2018-05-17T20:24:26.884Z,17.10
2018-05-17T20:29:46.988Z,17.10
2018-05-17T20:40:32.151Z,17.10
2018-05-17T20:45:34.730Z,17.00
2018-05-17T20:50:38.105Z,16.90
2018-05-17T20:55:40.997Z,16.90
2018-05-17T21:00:45.010Z,16.80
2018-05-17T21:05:48.082Z,16.80
2018-05-17T21:10:51.363Z,16.70
2018-05-17T21:15:53.989Z,16.70
2018-05-17T21:20:57.195Z,16.70
2018-05-17T21:26:03.090Z,16.60
2018-05-17T21:31:05.688Z,16.50
2018-05-17T21:36:08.557Z,16.50
2018-05-17T21:41:13.794Z,16.50
2018-05-17T21:46:17.812Z,16.20
2018-05-17T21:51:20.376Z,16.20
2018-05-17T21:56:23.314Z,16.20
2018-05-17T22:01:25.892Z,16.10
2018-05-17T22:06:28.486Z,16.10
2018-05-17T22:11:31.590Z,16.10
2018-05-17T22:16:34.884Z,16.00
2018-05-17T22:21:40.227Z,15.90
2018-05-17T22:26:43.131Z,15.90
2018-05-17T22:31:46.359Z,15.80
2018-05-17T22:36:49.492Z,15.70
2018-05-17T22:41:52.180Z,15.60
2018-05-17T22:47:21.885Z,15.50
2018-05-17T22:52:25.930Z,15.40
2018-05-17T22:57:42.003Z,15.30
2018-05-17T23:02:44.841Z,15.20
2018-05-17T23:08:13.594Z,15.20
2018-05-17T23:13:19.272Z,15.20
2018-05-17T23:18:22.327Z,15.10
2018-05-17T23:23:25.135Z,15.00
2018-05-17T23:28:28.781Z,15.00
2018-05-17T23:33:31.774Z,15.00
2018-05-17T23:38:35.922Z,14.90
2018-05-17T23:43:39.926Z,14.80
2018-05-17T23:48:43.371Z,14.70
2018-05-17T23:53:46.064Z,14.60
2018-05-17T23:58:52.758Z,14.60
